sensor_id;sensor_type;location;lat;lon;timestamp;temperature;humidity
21582;DHT22;10952;50.836;4.348;2022-09-01T00:02:19;21.10;99.90
21582;DHT22;10952;50.836;4.348;2022-09-01T00:04:45;21.20;99.90
21582;DHT22;10952;50.836;4.348;2022-09-01T00:07:12;21.10;99.90
21582;DHT22;10952;50.836;4.348;2022-09-01T00:09:38;21.00;99.90
21582;DHT22;10952;50.836;4.348;2022-09-01T00:12:06;20.90;99.90
21582;DHT22;10952;50.836;4.348;2022-09-01T00:14:35;21.00;99.90
21582;DHT22;10952;50.836;4.348;2022-09-01T00:17:05;21.00;99.90
21582;DHT22;10952;50.836;4.348;2022-09-01T00:19:31;21.00;99.90
21582;DHT22;10952;50.836;4.348;2022-09-01T00:21:58;20.90;99.90
21582;DHT22;10952;50.836;4.348;2022-09-01T00:24:25;20.90;99.90
21582;DHT22;10952;50.836;4.348;2022-09-01T00:26:51;20.90;99.90
21582;DHT22;10952;50.836;4.348;2022-09-01T00:29:17;20.90;99.90
21582;DHT22;10952;50.836;4.348;2022-09-01T00:31:44;20.90;99.90
21582;DHT22;10952;50.836;4.348;2022-09-01T00:34:09;20.80;99.90
21582;DHT22;10952;50.836;4.348;2022-09-01T00:36:35;20.80;99.90
21582;DHT22;10952;50.836;4.348;2022-09-01T00:39:01;20.80;99.90
21582;DHT22;10952;50.836;4.348;2022-09-01T00:41:30;20.90;99.90
21582;DHT22;10952;50.836;4.348;2022-09-01T00:44:05;20.80;99.90
21582;DHT22;10952;50.836;4.348;2022-09-01T00:46:34;20.70;99.90
21582;DHT22;10952;50.836;4.348;2022-09-01T00:49:08;20.70;99.90
21582;DHT22;10952;50.836;4.348;2022-09-01T00:51:37;20.60;99.90
21582;DHT22;10952;50.836;4.348;2022-09-01T00:54:06;20.60;99.90
21582;DHT22;10952;50.836;4.348;2022-09-01T00:56:33;20.60;99.90
21582;DHT22;10952;50.836;4.348;2022-09-01T00:59:01;20.60;99.90
21582;DHT22;10952;50.836;4.348;2022-09-01T01:01:28;20.60;99.90
21582;DHT22;10952;50.836;4.348;2022-09-01T01:03:54;20.60;99.90
21582;DHT22;10952;50.836;4.348;2022-09-01T01:06:22;20.60;99.90
21582;DHT22;10952;50.836;4.348;2022-09-01T01:08:52;20.60;99.90
21582;DHT22;10952;50.836;4.348;2022-09-01T01:11:30;20.60;99.90
21582;DHT22;10952;50.836;4.348;2022-09-01T01:14:01;20.60;99.90
21582;DHT22;10952;50.836;4.348;2022-09-01T01:16:35;20.60;99.90
21582;DHT22;10952;50.836;4.348;2022-09-01T01:19:01;20.60;99.90
21582;DHT22;10952;50.836;4.348;2022-09-01T01:21:41;20.60;99.90
21582;DHT22;10952;50.836;4.348;2022-09-01T01:24:31;20.50;99.90
21582;DHT22;10952;50.836;4.348;2022-09-01T01:26:58;20.50;99.90
21582;DHT22;10952;50.836;4.348;2022-09-01T01:29:26;20.50;99.90
21582;DHT22;10952;50.836;4.348;2022-09-01T01:31:55;20.70;99.90
21582;DHT22;10952;50.836;4.348;2022-09-01T01:34:21;20.60;99.90
21582;DHT22;10952;50.836;4.348;2022-09-01T01:36:48;20.60;99.90
21582;DHT22;10952;50.836;4.348;2022-09-01T01:39:21;20.50;99.90
21582;DHT22;10952;50.836;4.348;2022-09-01T01:41:47;20.40;99.90
21582;DHT22;10952;50.836;4.348;2022-09-01T01:44:16;20.40;99.90
21582;DHT22;10952;50.836;4.348;2022-09-01T01:46:46;20.40;99.90
21582;DHT22;10952;50.836;4.348;2022-09-01T01:49:13;20.20;99.90
21582;DHT22;10952;50.836;4.348;2022-09-01T01:51:40;20.30;99.90
21582;DHT22;10952;50.836;4.348;2022-09-01T01:54:06;20.30;99.90
21582;DHT22;10952;50.836;4.348;2022-09-01T01:56:33;20.20;99.90
21582;DHT22;10952;50.836;4.348;2022-09-01T01:59:02;20.20;99.90
21582;DHT22;10952;50.836;4.348;2022-09-01T02:01:28;20.10;99.90
21582;DHT22;10952;50.836;4.348;2022-09-01T02:03:57;20.00;99.90
21582;DHT22;10952;50.836;4.348;2022-09-01T02:06:25;20.10;99.90
21582;DHT22;10952;50.836;4.348;2022-09-01T02:08:52;20.10;99.90
21582;DHT22;10952;50.836;4.348;2022-09-01T02:11:25;20.00;99.90
21582;DHT22;10952;50.836;4.348;2022-09-01T02:13:55;20.00;99.90
21582;DHT22;10952;50.836;4.348;2022-09-01T02:16:23;20.00;99.90
21582;DHT22;10952;50.836;4.348;2022-09-01T02:18:49;20.00;99.90
21582;DHT22;10952;50.836;4.348;2022-09-01T02:21:17;19.90;99.90
21582;DHT22;10952;50.836;4.348;2022-09-01T02:23:55;20.10;99.90
21582;DHT22;10952;50.836;4.348;2022-09-01T02:26:31;20.10;99.90
21582;DHT22;10952;50.836;4.348;2022-09-01T02:29:02;20.10;99.90
21582;DHT22;10952;50.836;4.348;2022-09-01T02:31:34;20.10;99.90
21582;DHT22;10952;50.836;4.348;2022-09-01T02:34:00;20.10;99.90
21582;DHT22;10952;50.836;4.348;2022-09-01T02:36:26;20.10;99.90
21582;DHT22;10952;50.836;4.348;2022-09-01T02:38:53;20.10;99.90
21582;DHT22;10952;50.836;4.348;2022-09-01T02:41:20;20.00;99.90
21582;DHT22;10952;50.836;4.348;2022-09-01T02:43:48;19.90;99.90
21582;DHT22;10952;50.836;4.348;2022-09-01T02:46:14;19.90;99.90
21582;DHT22;10952;50.836;4.348;2022-09-01T02:48:42;19.90;99.90
21582;DHT22;10952;50.836;4.348;2022-09-01T02:51:16;19.90;99.90
21582;DHT22;10952;50.836;4.348;2022-09-01T02:53:44;20.00;99.90
21582;DHT22;10952;50.836;4.348;2022-09-01T02:56:11;20.00;99.90
21582;DHT22;10952;50.836;4.348;2022-09-01T02:58:39;20.10;99.90
21582;DHT22;10952;50.836;4.348;2022-09-01T03:01:26;20.10;99.90
21582;DHT22;10952;50.836;4.348;2022-09-01T03:03:56;20.00;99.90
21582;DHT22;10952;50.836;4.348;2022-09-01T03:06:23;20.00;99.90
21582;DHT22;10952;50.836;4.348;2022-09-01T03:08:50;19.90;99.90
21582;DHT22;10952;50.836;4.348;2022-09-01T03:11:16;19.80;99.90
21582;DHT22;10952;50.836;4.348;2022-09-01T03:13:43;19.80;99.90
21582;DHT22;10952;50.836;4.348;2022-09-01T03:16:09;19.80;99.90
21582;DHT22;10952;50.836;4.348;2022-09-01T03:18:36;19.80;99.90
21582;DHT22;10952;50.836;4.348;2022-09-01T03:21:03;19.80;99.90
21582;DHT22;10952;50.836;4.348;2022-09-01T03:23:30;19.90;99.90
21582;DHT22;10952;50.836;4.348;2022-09-01T03:25:56;19.80;99.90
21582;DHT22;10952;50.836;4.348;2022-09-01T03:28:22;19.70;99.90
21582;DHT22;10952;50.836;4.348;2022-09-01T03:30:50;19.50;99.90
21582;DHT22;10952;50.836;4.348;2022-09-01T03:33:18;19.40;99.90
21582;DHT22;10952;50.836;4.348;2022-09-01T03:35:44;19.40;99.90
21582;DHT22;10952;50.836;4.348;2022-09-01T03:38:11;19.30;99.90
21582;DHT22;10952;50.836;4.348;2022-09-01T03:40:39;19.20;99.90
21582;DHT22;10952;50.836;4.348;2022-09-01T03:43:07;19.30;99.90
21582;DHT22;10952;50.836;4.348;2022-09-01T03:45:39;19.30;99.90
21582;DHT22;10952;50.836;4.348;2022-09-01T03:48:07;19.20;99.90
21582;DHT22;10952;50.836;4.348;2022-09-01T03:50:38;19.20;99.90
21582;DHT22;10952;50.836;4.348;2022-09-01T03:53:12;19.30;99.90
21582;DHT22;10952;50.836;4.348;2022-09-01T03:55:38;19.30;99.90
21582;DHT22;10952;50.836;4.348;2022-09-01T03:58:07;19.20;99.90
21582;DHT22;10952;50.836;4.348;2022-09-01T04:00:37;19.20;99.90
21582;DHT22;10952;50.836;4.348;2022-09-01T04:03:06;19.30;99.90
21582;DHT22;10952;50.836;4.348;2022-09-01T04:05:33;19.40;99.90
21582;DHT22;10952;50.836;4.348;2022-09-01T04:08:01;19.40;99.90
21582;DHT22;10952;50.836;4.348;2022-09-01T04:10:37;19.30;99.90
21582;DHT22;10952;50.836;4.348;2022-09-01T04:13:06;19.30;99.90
21582;DHT22;10952;50.836;4.348;2022-09-01T04:15:37;19.30;99.90
21582;DHT22;10952;50.836;4.348;2022-09-01T04:18:04;19.30;99.90
21582;DHT22;10952;50.836;4.348;2022-09-01T04:20:38;19.40;99.90
21582;DHT22;10952;50.836;4.348;2022-09-01T04:23:28;19.30;99.90
21582;DHT22;10952;50.836;4.348;2022-09-01T04:25:59;19.20;99.90
21582;DHT22;10952;50.836;4.348;2022-09-01T04:28:31;19.30;99.90
21582;DHT22;10952;50.836;4.348;2022-09-01T04:30:59;19.40;99.90
21582;DHT22;10952;50.836;4.348;2022-09-01T04:33:31;19.30;99.90
21582;DHT22;10952;50.836;4.348;2022-09-01T04:38:51;19.20;99.90
21582;DHT22;10952;50.836;4.348;2022-09-01T04:41:26;19.20;99.90
21582;DHT22;10952;50.836;4.348;2022-09-01T04:43:53;19.10;99.90
21582;DHT22;10952;50.836;4.348;2022-09-01T04:46:22;19.10;99.90
21582;DHT22;10952;50.836;4.348;2022-09-01T04:48:51;19.10;99.90
21582;DHT22;10952;50.836;4.348;2022-09-01T04:51:17;18.90;99.90
21582;DHT22;10952;50.836;4.348;2022-09-01T04:53:43;19.00;99.90
21582;DHT22;10952;50.836;4.348;2022-09-01T04:56:14;19.10;99.90
21582;DHT22;10952;50.836;4.348;2022-09-01T04:58:44;18.90;99.90
21582;DHT22;10952;50.836;4.348;2022-09-01T05:01:16;18.80;99.90
21582;DHT22;10952;50.836;4.348;2022-09-01T05:03:42;18.90;99.90
21582;DHT22;10952;50.836;4.348;2022-09-01T05:06:16;18.90;99.90
21582;DHT22;10952;50.836;4.348;2022-09-01T05:08:43;18.90;99.90
21582;DHT22;10952;50.836;4.348;2022-09-01T05:11:11;18.80;99.90
21582;DHT22;10952;50.836;4.348;2022-09-01T05:13:37;18.80;99.90
21582;DHT22;10952;50.836;4.348;2022-09-01T05:16:08;18.80;99.90
21582;DHT22;10952;50.836;4.348;2022-09-01T05:18:38;18.70;99.90
21582;DHT22;10952;50.836;4.348;2022-09-01T05:21:07;18.60;99.90
21582;DHT22;10952;50.836;4.348;2022-09-01T05:23:37;18.70;99.90
21582;DHT22;10952;50.836;4.348;2022-09-01T05:26:11;18.70;99.90
21582;DHT22;10952;50.836;4.348;2022-09-01T05:28:42;18.80;99.90
21582;DHT22;10952;50.836;4.348;2022-09-01T05:31:08;19.00;99.90
21582;DHT22;10952;50.836;4.348;2022-09-01T05:33:35;19.00;99.90
21582;DHT22;10952;50.836;4.348;2022-09-01T05:36:02;19.00;99.90
21582;DHT22;10952;50.836;4.348;2022-09-01T05:38:33;18.90;99.90
21582;DHT22;10952;50.836;4.348;2022-09-01T05:41:02;18.90;99.90
21582;DHT22;10952;50.836;4.348;2022-09-01T05:43:30;18.90;99.90
21582;DHT22;10952;50.836;4.348;2022-09-01T05:45:56;19.00;99.90
21582;DHT22;10952;50.836;4.348;2022-09-01T05:48:31;19.10;99.90
21582;DHT22;10952;50.836;4.348;2022-09-01T05:51:05;19.10;99.90
21582;DHT22;10952;50.836;4.348;2022-09-01T05:53:34;19.10;99.90
21582;DHT22;10952;50.836;4.348;2022-09-01T05:56:00;19.20;99.90
21582;DHT22;10952;50.836;4.348;2022-09-01T05:58:31;19.10;99.90
21582;DHT22;10952;50.836;4.348;2022-09-01T06:00:59;19.20;99.90
21582;DHT22;10952;50.836;4.348;2022-09-01T06:03:26;19.10;99.90
21582;DHT22;10952;50.836;4.348;2022-09-01T06:05:53;19.10;99.90
21582;DHT22;10952;50.836;4.348;2022-09-01T06:08:21;19.00;99.90
21582;DHT22;10952;50.836;4.348;2022-09-01T06:10:48;19.10;99.90
21582;DHT22;10952;50.836;4.348;2022-09-01T06:13:16;19.20;99.90
21582;DHT22;10952;50.836;4.348;2022-09-01T06:15:42;19.40;99.90
21582;DHT22;10952;50.836;4.348;2022-09-01T06:18:10;19.40;99.90
21582;DHT22;10952;50.836;4.348;2022-09-01T06:20:41;19.30;99.90
21582;DHT22;10952;50.836;4.348;2022-09-01T06:23:10;19.30;99.90
21582;DHT22;10952;50.836;4.348;2022-09-01T06:25:44;19.40;99.90
21582;DHT22;10952;50.836;4.348;2022-09-01T06:28:16;19.50;99.90
21582;DHT22;10952;50.836;4.348;2022-09-01T06:30:46;19.50;99.90
21582;DHT22;10952;50.836;4.348;2022-09-01T06:33:14;19.50;99.90
21582;DHT22;10952;50.836;4.348;2022-09-01T06:35:41;19.50;99.90
21582;DHT22;10952;50.836;4.348;2022-09-01T06:38:10;19.60;99.90
21582;DHT22;10952;50.836;4.348;2022-09-01T06:40:37;19.70;99.90
21582;DHT22;10952;50.836;4.348;2022-09-01T06:43:05;19.60;99.90
21582;DHT22;10952;50.836;4.348;2022-09-01T06:45:45;19.60;99.90
21582;DHT22;10952;50.836;4.348;2022-09-01T06:48:19;19.60;99.90
21582;DHT22;10952;50.836;4.348;2022-09-01T06:50:46;19.50;99.90
21582;DHT22;10952;50.836;4.348;2022-09-01T06:53:12;19.50;99.90
21582;DHT22;10952;50.836;4.348;2022-09-01T06:55:41;19.50;99.90
21582;DHT22;10952;50.836;4.348;2022-09-01T06:58:09;19.50;99.90
21582;DHT22;10952;50.836;4.348;2022-09-01T07:00:36;19.60;99.90
21582;DHT22;10952;50.836;4.348;2022-09-01T07:03:07;19.70;99.90
21582;DHT22;10952;50.836;4.348;2022-09-01T07:05:40;19.80;99.90
21582;DHT22;10952;50.836;4.348;2022-09-01T07:08:08;19.70;99.90
21582;DHT22;10952;50.836;4.348;2022-09-01T07:10:47;19.80;99.90
21582;DHT22;10952;50.836;4.348;2022-09-01T07:13:16;19.70;99.90
21582;DHT22;10952;50.836;4.348;2022-09-01T07:15:44;19.80;99.90
21582;DHT22;10952;50.836;4.348;2022-09-01T07:18:13;19.80;99.90
21582;DHT22;10952;50.836;4.348;2022-09-01T07:20:40;19.90;99.90
21582;DHT22;10952;50.836;4.348;2022-09-01T07:23:07;20.00;99.90
21582;DHT22;10952;50.836;4.348;2022-09-01T07:25:36;20.00;99.90
21582;DHT22;10952;50.836;4.348;2022-09-01T07:28:03;20.20;99.90
21582;DHT22;10952;50.836;4.348;2022-09-01T07:30:30;20.30;99.90
21582;DHT22;10952;50.836;4.348;2022-09-01T07:32:57;20.20;99.90
21582;DHT22;10952;50.836;4.348;2022-09-01T07:35:23;20.30;99.90
21582;DHT22;10952;50.836;4.348;2022-09-01T07:37:49;20.40;99.90
21582;DHT22;10952;50.836;4.348;2022-09-01T07:40:17;20.40;99.90
21582;DHT22;10952;50.836;4.348;2022-09-01T07:42:45;20.40;99.90
21582;DHT22;10952;50.836;4.348;2022-09-01T07:45:13;20.50;99.90
21582;DHT22;10952;50.836;4.348;2022-09-01T07:47:40;20.60;99.90
21582;DHT22;10952;50.836;4.348;2022-09-01T07:50:08;20.70;99.90
21582;DHT22;10952;50.836;4.348;2022-09-01T07:52:35;20.80;99.90
21582;DHT22;10952;50.836;4.348;2022-09-01T07:55:16;20.70;99.90
21582;DHT22;10952;50.836;4.348;2022-09-01T07:57:43;20.70;99.90
21582;DHT22;10952;50.836;4.348;2022-09-01T08:00:12;20.80;99.90
21582;DHT22;10952;50.836;4.348;2022-09-01T08:02:40;20.80;99.90
21582;DHT22;10952;50.836;4.348;2022-09-01T08:05:07;20.80;99.90
21582;DHT22;10952;50.836;4.348;2022-09-01T08:07:36;20.90;99.90
21582;DHT22;10952;50.836;4.348;2022-09-01T08:10:06;20.90;99.90
21582;DHT22;10952;50.836;4.348;2022-09-01T08:12:33;20.90;99.90
21582;DHT22;10952;50.836;4.348;2022-09-01T08:15:01;21.00;99.90
21582;DHT22;10952;50.836;4.348;2022-09-01T08:17:28;21.10;99.90
21582;DHT22;10952;50.836;4.348;2022-09-01T08:19:56;21.20;99.90
21582;DHT22;10952;50.836;4.348;2022-09-01T08:22:23;21.30;99.90
21582;DHT22;10952;50.836;4.348;2022-09-01T08:24:51;21.30;99.90
21582;DHT22;10952;50.836;4.348;2022-09-01T08:27:18;21.40;99.90
21582;DHT22;10952;50.836;4.348;2022-09-01T08:29:43;21.50;99.90
21582;DHT22;10952;50.836;4.348;2022-09-01T08:32:10;21.50;99.90
21582;DHT22;10952;50.836;4.348;2022-09-01T08:34:36;21.50;99.90
21582;DHT22;10952;50.836;4.348;2022-09-01T08:37:02;21.70;99.90
21582;DHT22;10952;50.836;4.348;2022-09-01T08:39:28;21.60;99.90
21582;DHT22;10952;50.836;4.348;2022-09-01T08:47:11;21.70;99.90
21582;DHT22;10952;50.836;4.348;2022-09-01T08:49:39;21.80;99.90
21582;DHT22;10952;50.836;4.348;2022-09-01T08:52:12;21.90;99.90
21582;DHT22;10952;50.836;4.348;2022-09-01T08:54:44;22.10;99.90
21582;DHT22;10952;50.836;4.348;2022-09-01T08:57:20;22.10;99.90
21582;DHT22;10952;50.836;4.348;2022-09-01T08:59:48;22.30;99.90
21582;DHT22;10952;50.836;4.348;2022-09-01T09:08:25;22.50;99.90
21582;DHT22;10952;50.836;4.348;2022-09-01T09:16:29;22.80;99.90
21582;DHT22;10952;50.836;4.348;2022-09-01T09:19:06;22.90;99.90
21582;DHT22;10952;50.836;4.348;2022-09-01T09:27:25;23.20;99.90
21582;DHT22;10952;50.836;4.348;2022-09-01T09:29:56;23.20;99.90
21582;DHT22;10952;50.836;4.348;2022-09-01T09:32:24;23.10;99.90
21582;DHT22;10952;50.836;4.348;2022-09-01T09:35:25;23.20;99.90
21582;DHT22;10952;50.836;4.348;2022-09-01T09:37:52;23.20;99.90
21582;DHT22;10952;50.836;4.348;2022-09-01T09:40:23;23.40;99.90
21582;DHT22;10952;50.836;4.348;2022-09-01T09:45:27;23.80;99.90
21582;DHT22;10952;50.836;4.348;2022-09-01T09:47:55;23.80;99.90
21582;DHT22;10952;50.836;4.348;2022-09-01T09:50:28;23.80;99.90
21582;DHT22;10952;50.836;4.348;2022-09-01T09:58:16;23.80;99.90
21582;DHT22;10952;50.836;4.348;2022-09-01T10:00:58;24.10;99.90
21582;DHT22;10952;50.836;4.348;2022-09-01T10:03:35;24.20;99.00
21582;DHT22;10952;50.836;4.348;2022-09-01T10:06:01;24.20;98.10
21582;DHT22;10952;50.836;4.348;2022-09-01T10:10:53;24.50;96.90
21582;DHT22;10952;50.836;4.348;2022-09-01T10:13:22;24.60;96.70
21582;DHT22;10952;50.836;4.348;2022-09-01T10:15:51;24.70;96.20
21582;DHT22;10952;50.836;4.348;2022-09-01T10:18:38;24.70;96.20
21582;DHT22;10952;50.836;4.348;2022-09-01T10:24:29;24.80;95.00
21582;DHT22;10952;50.836;4.348;2022-09-01T10:27:23;24.80;94.10
21582;DHT22;10952;50.836;4.348;2022-09-01T10:30:07;25.00;93.90
21582;DHT22;10952;50.836;4.348;2022-09-01T10:32:44;25.10;93.30
21582;DHT22;10952;50.836;4.348;2022-09-01T10:35:15;25.40;93.10
21582;DHT22;10952;50.836;4.348;2022-09-01T10:37:43;25.90;92.00
21582;DHT22;10952;50.836;4.348;2022-09-01T10:42:39;28.20;89.50
21582;DHT22;10952;50.836;4.348;2022-09-01T10:47:52;30.60;83.00
21582;DHT22;10952;50.836;4.348;2022-09-01T10:50:30;31.80;79.90
21582;DHT22;10952;50.836;4.348;2022-09-01T10:53:00;32.00;77.30
21582;DHT22;10952;50.836;4.348;2022-09-01T10:55:31;31.50;76.90
21582;DHT22;10952;50.836;4.348;2022-09-01T11:00:44;31.70;75.50
21582;DHT22;10952;50.836;4.348;2022-09-01T11:05:59;33.80;72.10
21582;DHT22;10952;50.836;4.348;2022-09-01T11:13:45;35.80;67.40
21582;DHT22;10952;50.836;4.348;2022-09-01T11:16:37;36.50;64.50
21582;DHT22;10952;50.836;4.348;2022-09-01T11:22:12;35.00;66.00
21582;DHT22;10952;50.836;4.348;2022-09-01T11:27:41;35.30;64.50
21582;DHT22;10952;50.836;4.348;2022-09-01T11:30:08;35.90;63.60
21582;DHT22;10952;50.836;4.348;2022-09-01T11:32:37;36.50;62.60
21582;DHT22;10952;50.836;4.348;2022-09-01T11:35:06;37.20;61.60
21582;DHT22;10952;50.836;4.348;2022-09-01T11:37:39;36.70;59.90
21582;DHT22;10952;50.836;4.348;2022-09-01T11:40:05;36.90;59.10
21582;DHT22;10952;50.836;4.348;2022-09-01T11:42:43;36.90;58.70
21582;DHT22;10952;50.836;4.348;2022-09-01T11:45:15;37.40;59.30
21582;DHT22;10952;50.836;4.348;2022-09-01T11:47:45;36.50;59.20
21582;DHT22;10952;50.836;4.348;2022-09-01T11:50:29;37.00;58.40
21582;DHT22;10952;50.836;4.348;2022-09-01T11:53:03;36.50;58.40
21582;DHT22;10952;50.836;4.348;2022-09-01T11:55:34;36.80;58.30
21582;DHT22;10952;50.836;4.348;2022-09-01T11:58:01;36.40;58.40
21582;DHT22;10952;50.836;4.348;2022-09-01T12:00:33;36.50;58.20
21582;DHT22;10952;50.836;4.348;2022-09-01T12:03:23;36.50;58.30
21582;DHT22;10952;50.836;4.348;2022-09-01T12:06:02;35.70;58.30
21582;DHT22;10952;50.836;4.348;2022-09-01T12:08:35;34.50;59.80
21582;DHT22;10952;50.836;4.348;2022-09-01T12:11:10;34.10;60.70
21582;DHT22;10952;50.836;4.348;2022-09-01T12:13:37;34.50;60.80
21582;DHT22;10952;50.836;4.348;2022-09-01T12:16:09;35.00;59.60
21582;DHT22;10952;50.836;4.348;2022-09-01T12:18:43;35.00;59.70
21582;DHT22;10952;50.836;4.348;2022-09-01T12:21:24;34.40;60.40
21582;DHT22;10952;50.836;4.348;2022-09-01T12:23:50;34.80;59.80
21582;DHT22;10952;50.836;4.348;2022-09-01T12:26:27;33.90;60.70
21582;DHT22;10952;50.836;4.348;2022-09-01T12:28:54;33.80;60.90
21582;DHT22;10952;50.836;4.348;2022-09-01T12:31:24;33.90;61.10
21582;DHT22;10952;50.836;4.348;2022-09-01T12:33:52;33.60;61.20
21582;DHT22;10952;50.836;4.348;2022-09-01T12:36:30;32.70;62.90
21582;DHT22;10952;50.836;4.348;2022-09-01T12:41:43;32.70;63.00
21582;DHT22;10952;50.836;4.348;2022-09-01T12:44:32;33.20;63.20
21582;DHT22;10952;50.836;4.348;2022-09-01T12:47:04;33.80;62.00
21582;DHT22;10952;50.836;4.348;2022-09-01T12:49:45;33.50;62.10
21582;DHT22;10952;50.836;4.348;2022-09-01T12:52:24;34.00;60.80
21582;DHT22;10952;50.836;4.348;2022-09-01T12:57:49;32.90;61.60
21582;DHT22;10952;50.836;4.348;2022-09-01T13:00:20;32.50;63.50
21582;DHT22;10952;50.836;4.348;2022-09-01T13:07:51;31.20;64.60
21582;DHT22;10952;50.836;4.348;2022-09-01T13:10:16;30.70;66.00
21582;DHT22;10952;50.836;4.348;2022-09-01T13:12:43;30.20;66.50
21582;DHT22;10952;50.836;4.348;2022-09-01T13:15:11;30.00;67.20
21582;DHT22;10952;50.836;4.348;2022-09-01T13:17:37;30.00;67.40
21582;DHT22;10952;50.836;4.348;2022-09-01T13:20:05;29.80;67.60
21582;DHT22;10952;50.836;4.348;2022-09-01T13:22:31;29.80;67.80
21582;DHT22;10952;50.836;4.348;2022-09-01T13:24:57;29.30;68.60
21582;DHT22;10952;50.836;4.348;2022-09-01T13:27:22;29.00;69.40
21582;DHT22;10952;50.836;4.348;2022-09-01T13:29:49;29.10;70.80
21582;DHT22;10952;50.836;4.348;2022-09-01T13:32:16;29.20;69.90
21582;DHT22;10952;50.836;4.348;2022-09-01T13:34:41;29.10;69.90
21582;DHT22;10952;50.836;4.348;2022-09-01T13:37:07;28.80;70.60
21582;DHT22;10952;50.836;4.348;2022-09-01T13:39:33;28.70;70.40
21582;DHT22;10952;50.836;4.348;2022-09-01T13:41:58;28.70;70.90
21582;DHT22;10952;50.836;4.348;2022-09-01T13:44:24;28.80;70.30
21582;DHT22;10952;50.836;4.348;2022-09-01T13:46:49;28.80;70.00
21582;DHT22;10952;50.836;4.348;2022-09-01T13:49:15;28.90;69.90
21582;DHT22;10952;50.836;4.348;2022-09-01T13:51:41;28.90;69.50
21582;DHT22;10952;50.836;4.348;2022-09-01T13:54:06;28.90;69.20
21582;DHT22;10952;50.836;4.348;2022-09-01T13:56:32;28.70;69.30
21582;DHT22;10952;50.836;4.348;2022-09-01T13:58:59;28.60;69.40
21582;DHT22;10952;50.836;4.348;2022-09-01T14:01:25;28.50;70.20
21582;DHT22;10952;50.836;4.348;2022-09-01T14:03:51;28.50;69.80
21582;DHT22;10952;50.836;4.348;2022-09-01T14:06:17;28.60;69.70
21582;DHT22;10952;50.836;4.348;2022-09-01T14:08:43;28.80;69.30
21582;DHT22;10952;50.836;4.348;2022-09-01T14:11:16;29.10;68.90
21582;DHT22;10952;50.836;4.348;2022-09-01T14:13:42;29.10;69.40
21582;DHT22;10952;50.836;4.348;2022-09-01T14:16:11;29.20;69.70
21582;DHT22;10952;50.836;4.348;2022-09-01T14:18:37;29.50;69.10
21582;DHT22;10952;50.836;4.348;2022-09-01T14:21:03;29.10;68.90
21582;DHT22;10952;50.836;4.348;2022-09-01T14:23:29;28.80;69.40
21582;DHT22;10952;50.836;4.348;2022-09-01T14:25:55;28.70;69.40
21582;DHT22;10952;50.836;4.348;2022-09-01T14:28:21;28.60;69.80
21582;DHT22;10952;50.836;4.348;2022-09-01T14:30:48;28.60;69.80
21582;DHT22;10952;50.836;4.348;2022-09-01T14:33:15;28.50;70.10
21582;DHT22;10952;50.836;4.348;2022-09-01T14:35:43;28.50;69.70
21582;DHT22;10952;50.836;4.348;2022-09-01T14:38:09;28.70;69.80
21582;DHT22;10952;50.836;4.348;2022-09-01T14:40:38;28.60;69.10
21582;DHT22;10952;50.836;4.348;2022-09-01T14:43:06;28.70;69.10
21582;DHT22;10952;50.836;4.348;2022-09-01T14:45:34;28.90;69.10
21582;DHT22;10952;50.836;4.348;2022-09-01T14:48:02;28.80;68.60
21582;DHT22;10952;50.836;4.348;2022-09-01T14:50:30;28.40;69.10
21582;DHT22;10952;50.836;4.348;2022-09-01T14:53:00;28.50;69.50
21582;DHT22;10952;50.836;4.348;2022-09-01T14:55:28;28.40;69.10
21582;DHT22;10952;50.836;4.348;2022-09-01T14:57:55;28.10;69.80
21582;DHT22;10952;50.836;4.348;2022-09-01T15:00:22;28.20;70.10
21582;DHT22;10952;50.836;4.348;2022-09-01T15:02:50;28.30;69.70
21582;DHT22;10952;50.836;4.348;2022-09-01T15:05:15;28.40;70.00
21582;DHT22;10952;50.836;4.348;2022-09-01T15:07:43;28.20;69.80
21582;DHT22;10952;50.836;4.348;2022-09-01T15:10:11;28.20;69.80
21582;DHT22;10952;50.836;4.348;2022-09-01T15:12:37;28.10;68.90
21582;DHT22;10952;50.836;4.348;2022-09-01T15:15:05;28.10;69.10
21582;DHT22;10952;50.836;4.348;2022-09-01T15:17:32;28.30;69.10
21582;DHT22;10952;50.836;4.348;2022-09-01T15:20:00;28.40;68.50
21582;DHT22;10952;50.836;4.348;2022-09-01T15:22:46;28.40;68.40
21582;DHT22;10952;50.836;4.348;2022-09-01T15:25:12;28.20;68.60
21582;DHT22;10952;50.836;4.348;2022-09-01T15:27:38;28.30;68.30
21582;DHT22;10952;50.836;4.348;2022-09-01T15:30:04;28.20;68.30
21582;DHT22;10952;50.836;4.348;2022-09-01T15:32:40;28.50;68.40
21582;DHT22;10952;50.836;4.348;2022-09-01T15:35:07;28.50;67.60
21582;DHT22;10952;50.836;4.348;2022-09-01T15:37:33;28.50;67.70
21582;DHT22;10952;50.836;4.348;2022-09-01T15:39:59;28.20;67.60
21582;DHT22;10952;50.836;4.348;2022-09-01T15:42:26;28.40;67.60
21582;DHT22;10952;50.836;4.348;2022-09-01T15:44:51;28.50;67.90
21582;DHT22;10952;50.836;4.348;2022-09-01T15:47:17;28.70;67.30
21582;DHT22;10952;50.836;4.348;2022-09-01T15:49:43;28.50;66.70
21582;DHT22;10952;50.836;4.348;2022-09-01T15:52:09;28.40;66.70
21582;DHT22;10952;50.836;4.348;2022-09-01T15:54:38;28.30;66.70
21582;DHT22;10952;50.836;4.348;2022-09-01T15:57:05;28.20;66.60
21582;DHT22;10952;50.836;4.348;2022-09-01T15:59:30;28.20;66.70
21582;DHT22;10952;50.836;4.348;2022-09-01T16:01:57;28.20;66.40
21582;DHT22;10952;50.836;4.348;2022-09-01T16:04:23;28.50;66.20
21582;DHT22;10952;50.836;4.348;2022-09-01T16:06:49;28.80;65.80
21582;DHT22;10952;50.836;4.348;2022-09-01T16:09:16;29.00;65.30
21582;DHT22;10952;50.836;4.348;2022-09-01T16:11:43;28.90;65.40
21582;DHT22;10952;50.836;4.348;2022-09-01T16:14:08;28.90;65.50
21582;DHT22;10952;50.836;4.348;2022-09-01T16:16:45;28.80;65.60
21582;DHT22;10952;50.836;4.348;2022-09-01T16:22:15;29.00;65.40
21582;DHT22;10952;50.836;4.348;2022-09-01T16:24:50;29.00;64.70
21582;DHT22;10952;50.836;4.348;2022-09-01T16:27:23;28.90;64.50
21582;DHT22;10952;50.836;4.348;2022-09-01T16:29:55;28.60;65.00
21582;DHT22;10952;50.836;4.348;2022-09-01T16:32:23;27.90;65.90
21582;DHT22;10952;50.836;4.348;2022-09-01T16:34:50;27.80;66.50
21582;DHT22;10952;50.836;4.348;2022-09-01T16:37:50;27.70;66.80
21582;DHT22;10952;50.836;4.348;2022-09-01T16:48:38;27.70;66.70
21582;DHT22;10952;50.836;4.348;2022-09-01T16:51:30;27.40;66.70
21582;DHT22;10952;50.836;4.348;2022-09-01T17:01:59;27.40;67.90
21582;DHT22;10952;50.836;4.348;2022-09-01T17:05:00;27.50;67.70
21582;DHT22;10952;50.836;4.348;2022-09-01T17:10:31;27.10;68.40
21582;DHT22;10952;50.836;4.348;2022-09-01T17:13:26;27.10;68.40
21582;DHT22;10952;50.836;4.348;2022-09-01T17:16:06;27.20;68.60
21582;DHT22;10952;50.836;4.348;2022-09-01T17:18:44;27.20;68.00
21582;DHT22;10952;50.836;4.348;2022-09-01T17:26:29;27.20;68.00